createdAt,value
2022-09-13T00:00:49.672Z,10.30
2022-09-13T00:06:23.170Z,10.31
2022-09-13T00:11:29.705Z,10.30
2022-09-13T00:16:34.818Z,10.29
2022-09-13T00:21:38.020Z,10.27
2022-09-13T00:26:41.383Z,10.23
2022-09-13T00:31:45.223Z,10.22
2022-09-13T00:36:48.571Z,10.20
2022-09-13T00:41:53.505Z,10.15
2022-09-13T00:46:56.725Z,10.01
2022-09-13T00:52:10.986Z,9.82
2022-09-13T00:57:17.759Z,9.69
2022-09-13T01:02:21.798Z,9.64
2022-09-13T01:07:25.058Z,9.61
2022-09-13T01:12:53.837Z,9.58
2022-09-13T01:17:57.270Z,9.57
2022-09-13T01:23:36.929Z,9.62
2022-09-13T01:28:57.020Z,9.59
2022-09-13T01:34:03.096Z,9.60
2022-09-13T01:39:12.790Z,9.69
2022-09-13T01:44:48.578Z,9.72
2022-09-13T01:50:42.856Z,9.70
2022-09-13T01:55:51.053Z,9.70
2022-09-13T02:01:02.741Z,9.70
2022-09-13T02:06:12.046Z,9.79
2022-09-13T02:11:17.593Z,9.85
2022-09-13T02:16:44.761Z,9.89
2022-09-13T02:21:59.379Z,9.95
2022-09-13T02:27:10.251Z,9.99
2022-09-13T02:32:19.101Z,9.88
2022-09-13T02:37:30.542Z,9.76
2022-09-13T02:42:59.109Z,9.68
2022-09-13T02:48:11.370Z,9.61
2022-09-13T02:53:46.699Z,9.52
2022-09-13T02:59:20.730Z,9.41
2022-09-13T03:04:27.709Z,9.32
2022-09-13T03:09:38.112Z,9.27
2022-09-13T03:14:57.513Z,9.21
2022-09-13T03:20:38.932Z,9.16
2022-09-13T03:26:24.469Z,9.12
2022-09-13T03:31:41.072Z,9.09
2022-09-13T03:37:05.275Z,9.06
2022-09-13T03:42:24.512Z,9.01
2022-09-13T03:47:32.650Z,8.95
2022-09-13T03:52:36.553Z,8.90
2022-09-13T03:57:42.260Z,8.89
2022-09-13T04:02:51.126Z,8.92
2022-09-13T04:07:59.255Z,8.94
2022-09-13T04:13:02.545Z,8.96
2022-09-13T04:18:06.104Z,9.00
2022-09-13T04:23:11.742Z,9.10
2022-09-13T04:28:17.415Z,9.21
2022-09-13T04:33:21.880Z,9.30
2022-09-13T04:38:25.101Z,9.39
2022-09-13T04:43:35.529Z,9.49
2022-09-13T04:48:38.976Z,9.62
2022-09-13T04:53:45.870Z,9.77
2022-09-13T04:58:51.297Z,9.94
2022-09-13T05:03:55.065Z,10.10
2022-09-13T05:08:59.300Z,10.22
2022-09-13T05:14:02.654Z,10.35
2022-09-13T05:19:09.266Z,10.51
2022-09-13T05:24:12.499Z,10.64
2022-09-13T05:29:15.949Z,10.79
2022-09-13T05:34:19.961Z,10.92
2022-09-13T05:39:34.004Z,10.94
2022-09-13T05:44:42.927Z,11.00
2022-09-13T05:50:08.625Z,11.08
2022-09-13T05:55:10.222Z,11.24
2022-09-13T06:00:18.518Z,11.53
2022-09-13T06:05:22.049Z,11.89
2022-09-13T06:10:25.610Z,12.20
2022-09-13T06:15:28.937Z,12.44
2022-09-13T06:20:32.862Z,12.65
2022-09-13T06:25:36.079Z,12.98
2022-09-13T06:30:39.471Z,13.39
2022-09-13T06:35:43.142Z,13.78
2022-09-13T06:40:46.905Z,14.24
2022-09-13T06:45:51.026Z,14.50
2022-09-13T06:50:58.816Z,14.61
2022-09-13T06:56:04.970Z,14.69
2022-09-13T07:01:29.698Z,14.86
2022-09-13T07:06:37.979Z,15.02
2022-09-13T07:11:42.403Z,15.21
2022-09-13T07:16:47.248Z,15.43
2022-09-13T07:21:50.914Z,15.69
2022-09-13T07:26:54.723Z,16.08
2022-09-13T07:31:58.940Z,16.52
2022-09-13T07:37:02.869Z,16.98
2022-09-13T07:42:06.268Z,17.51
2022-09-13T07:47:09.723Z,17.98
2022-09-13T07:52:12.990Z,18.30
2022-09-13T07:57:16.403Z,18.54
2022-09-13T08:02:19.796Z,18.75
2022-09-13T08:07:23.319Z,18.82
2022-09-13T08:12:26.518Z,18.80
2022-09-13T08:17:29.990Z,19.03
2022-09-13T08:22:33.343Z,19.26
2022-09-13T08:27:36.726Z,19.42
2022-09-13T08:32:39.953Z,19.59
2022-09-13T08:37:43.995Z,19.73
2022-09-13T08:42:54.624Z,19.86
2022-09-13T08:48:21.694Z,20.07
2022-09-13T08:53:30.399Z,20.30
2022-09-13T08:59:00.157Z,20.48
2022-09-13T09:04:21.557Z,20.81
2022-09-13T09:09:26.826Z,21.15
2022-09-13T09:14:40.259Z,21.59
2022-09-13T09:19:48.266Z,22.10
2022-09-13T09:24:55.095Z,22.46
2022-09-13T09:29:58.607Z,22.86
2022-09-13T09:35:21.165Z,23.50
2022-09-13T09:40:26.495Z,23.85
2022-09-13T09:45:35.066Z,23.90
2022-09-13T09:50:43.901Z,23.75
2022-09-13T09:55:55.366Z,23.54
2022-09-13T10:00:59.512Z,23.16
2022-09-13T10:06:10.335Z,22.75
2022-09-13T10:11:13.819Z,22.26
2022-09-13T10:16:30.131Z,21.77
2022-09-13T10:21:36.854Z,21.30
2022-09-13T10:26:40.653Z,20.96
2022-09-13T10:31:46.451Z,20.77
2022-09-13T10:37:06.519Z,20.88
2022-09-13T10:42:11.127Z,21.26
2022-09-13T10:47:26.532Z,21.75
2022-09-13T10:52:35.537Z,22.39
2022-09-13T10:57:38.878Z,22.89
2022-09-13T11:02:54.572Z,23.30
2022-09-13T11:08:22.038Z,23.79
2022-09-13T11:13:53.508Z,24.17
2022-09-13T11:19:37.614Z,24.39
2022-09-13T11:25:02.171Z,24.67
2022-09-13T11:30:20.551Z,24.98
2022-09-13T11:36:09.677Z,25.03
2022-09-13T11:41:51.272Z,24.96
2022-09-13T11:47:14.485Z,24.54
2022-09-13T11:52:55.564Z,24.09
2022-09-13T11:58:02.154Z,23.76
2022-09-13T12:03:11.493Z,23.45
2022-09-13T12:08:22.877Z,23.22
2022-09-13T12:13:42.845Z,23.10
2022-09-13T12:18:54.810Z,22.99
2022-09-13T12:24:01.051Z,22.82
2022-09-13T12:29:26.678Z,22.71
2022-09-13T12:34:55.574Z,22.70
2022-09-13T12:40:12.413Z,22.73
2022-09-13T12:45:34.182Z,22.74
2022-09-13T12:51:02.415Z,22.61
2022-09-13T12:56:23.291Z,22.45
2022-09-13T13:01:35.006Z,22.30
2022-09-13T13:06:40.886Z,22.23
2022-09-13T13:11:47.687Z,22.21
2022-09-13T13:16:51.308Z,22.30
2022-09-13T13:21:55.085Z,22.47
2022-09-13T13:27:00.902Z,22.68
2022-09-13T13:32:12.430Z,22.92
2022-09-13T13:37:16.139Z,23.08
2022-09-13T13:42:28.069Z,23.19
2022-09-13T13:47:34.396Z,23.30
2022-09-13T13:52:41.588Z,23.30
2022-09-13T13:58:07.903Z,23.22
2022-09-13T14:03:24.390Z,23.28
2022-09-13T14:08:37.000Z,23.43
2022-09-13T14:14:07.366Z,23.51
2022-09-13T14:19:29.139Z,23.53
2022-09-13T14:24:40.025Z,23.52
2022-09-13T14:29:49.330Z,23.51
2022-09-13T14:34:58.738Z,23.46
2022-09-13T14:46:39.430Z,23.19
2022-09-13T14:52:10.551Z,23.19
2022-09-13T14:57:51.430Z,23.21
2022-09-13T15:03:04.384Z,23.16
2022-09-13T15:08:51.411Z,22.89
2022-09-13T15:14:20.488Z,22.61
2022-09-13T15:19:25.445Z,22.34
2022-09-13T15:24:43.646Z,22.08
2022-09-13T15:30:02.700Z,21.96
2022-09-13T15:35:37.332Z,22.05
2022-09-13T15:40:53.625Z,22.19
2022-09-13T15:45:58.557Z,22.15
2022-09-13T15:51:11.002Z,22.04
2022-09-13T15:56:22.030Z,21.86
2022-09-13T16:01:27.898Z,21.81
2022-09-13T16:06:33.144Z,21.69
2022-09-13T16:11:36.382Z,21.51
2022-09-13T16:16:42.234Z,21.31
2022-09-13T16:21:47.065Z,21.15
2022-09-13T16:26:52.206Z,21.02
2022-09-13T16:32:00.596Z,20.91
2022-09-13T16:37:05.098Z,20.79
2022-09-13T16:42:14.526Z,20.65
2022-09-13T16:47:18.660Z,20.51
2022-09-13T16:52:21.988Z,20.37
2022-09-13T16:57:26.415Z,20.22
2022-09-13T17:02:30.648Z,20.07
2022-09-13T17:07:35.238Z,19.93
2022-09-13T17:12:39.424Z,19.82
2022-09-13T17:17:44.078Z,19.73
2022-09-13T17:22:49.643Z,19.66
2022-09-13T17:27:59.749Z,19.62
2022-09-13T17:33:12.182Z,19.55
2022-09-13T17:44:23.322Z,19.43
2022-09-13T17:49:31.225Z,19.35
2022-09-13T17:54:43.545Z,19.25
2022-09-13T17:59:53.482Z,19.19
2022-09-13T18:05:05.715Z,19.14
2022-09-13T18:10:45.701Z,19.10
2022-09-13T18:16:20.708Z,19.06
2022-09-13T18:21:31.049Z,19.01
2022-09-13T18:26:44.563Z,18.91
2022-09-13T18:31:53.712Z,18.99
2022-09-13T18:37:12.832Z,19.26
2022-09-13T18:42:33.368Z,18.91
2022-09-13T18:47:47.905Z,18.67
2022-09-13T18:52:57.019Z,18.47
2022-09-13T18:58:08.696Z,18.31
2022-09-13T19:03:26.335Z,18.19
2022-09-13T19:08:32.474Z,18.06
2022-09-13T19:13:41.910Z,17.96
2022-09-13T19:18:53.680Z,17.90
2022-09-13T19:24:10.716Z,17.81
2022-09-13T19:29:22.709Z,17.70
2022-09-13T19:34:28.749Z,17.60
2022-09-13T19:39:36.742Z,17.49
2022-09-13T19:44:49.901Z,17.34
2022-09-13T19:49:56.209Z,17.18
2022-09-13T19:55:04.059Z,17.01
2022-09-13T20:00:09.675Z,16.85
2022-09-13T20:05:13.583Z,16.72
2022-09-13T20:10:18.393Z,16.59
2022-09-13T20:15:27.440Z,16.46
2022-09-13T20:20:31.938Z,16.34
2022-09-13T20:25:40.292Z,16.23
2022-09-13T20:31:28.942Z,16.13
2022-09-13T20:36:39.529Z,16.03
2022-09-13T20:41:56.042Z,15.97
2022-09-13T20:47:12.858Z,15.93
2022-09-13T20:52:24.780Z,15.89
2022-09-13T20:57:36.192Z,15.78
2022-09-13T21:02:44.663Z,15.64
2022-09-13T21:08:10.756Z,15.46
2022-09-13T21:13:17.060Z,15.25
2022-09-13T21:18:20.723Z,15.07
2022-09-13T21:23:24.956Z,14.96
2022-09-13T21:28:31.380Z,14.86
2022-09-13T21:33:35.876Z,14.82
2022-09-13T21:38:40.196Z,14.79
2022-09-13T21:43:43.878Z,14.78
2022-09-13T21:48:53.734Z,14.76
2022-09-13T21:53:59.479Z,14.78
2022-09-13T21:59:05.823Z,14.80
2022-09-13T22:04:17.281Z,14.79
2022-09-13T22:09:23.317Z,14.78
2022-09-13T22:14:26.835Z,14.79
2022-09-13T22:19:31.879Z,14.79
2022-09-13T22:24:40.618Z,14.79
2022-09-13T22:29:44.081Z,14.77
2022-09-13T22:34:49.088Z,14.79
2022-09-13T22:39:53.189Z,14.82
2022-09-13T22:44:56.675Z,14.83
2022-09-13T22:50:02.238Z,14.80
2022-09-13T22:55:07.381Z,14.78
2022-09-13T23:00:14.755Z,14.78
2022-09-13T23:05:19.372Z,14.77
2022-09-13T23:10:33.318Z,14.79
2022-09-13T23:15:42.898Z,14.88
2022-09-13T23:21:02.609Z,14.97
2022-09-13T23:26:11.463Z,15.04
2022-09-13T23:31:16.259Z,15.13
2022-09-13T23:36:23.124Z,15.20
2022-09-13T23:41:31.414Z,15.23
2022-09-13T23:46:45.293Z,15.23
2022-09-13T23:51:50.867Z,15.14
2022-09-13T23:56:57.196Z,15.00
